Eitzen, Minnesota
Current Conditions -  °F | °C
As of 1:55 PM on Sunday 21 Dec 2014 (Local Time) from KDEH Reporting Station
Haze Haze  
Wind Chill: 29°   Ceiling: 700
Heat Index: 37°   Visibility: 2.5mi
Dew Point: 36°   Wind: 15mph
Humidity: 93%   Direction: 180°S
Pressure: 29.85"   Gusts: 23mph
Location:  43.51°N, 91.46°W
Report Text: KDEH 211955Z AUTO 18013G20KT 2 1/2SM BR OVC007 03/02 A2985 RMK AO2
Loading
Personal Weather Stations






























Interactive Weather Map New forecast layout! Learn more

10-Day Weather Forecast

Advertisements
Track Severe Weather on mobile